createdAt,value
2018-12-24T00:06:16.136Z,12.90
2018-12-24T00:16:31.972Z,12.80
2018-12-24T00:26:47.824Z,12.50
2018-12-24T00:37:03.455Z,11.80
2018-12-24T00:47:18.803Z,10.70
2018-12-24T00:57:34.552Z,10.00
2018-12-24T01:07:50.288Z,9.80
2018-12-24T01:18:05.757Z,9.70
2018-12-24T01:28:20.973Z,9.70
2018-12-24T01:38:36.155Z,9.50
2018-12-24T01:48:52.075Z,9.30
2018-12-24T01:59:07.739Z,9.20
2018-12-24T02:09:23.583Z,9.20
2018-12-24T02:30:13.321Z,8.70
2018-12-24T02:40:29.483Z,8.70
2018-12-24T02:50:44.728Z,8.70
2018-12-24T03:01:00.010Z,8.70
2018-12-24T03:11:15.878Z,8.50
2018-12-24T03:21:31.375Z,8.10
2018-12-24T03:31:46.973Z,7.70
2018-12-24T03:42:02.556Z,7.50
2018-12-24T03:52:17.832Z,7.20
2018-12-24T04:02:33.793Z,7.00
2018-12-24T04:12:49.567Z,6.90
2018-12-24T04:33:38.086Z,6.70
2018-12-24T04:54:27.578Z,7.00
2018-12-24T05:04:42.849Z,7.00
2018-12-24T05:14:58.699Z,7.10
2018-12-24T05:25:14.676Z,7.10
2018-12-24T05:35:30.408Z,7.20
2018-12-24T05:45:45.879Z,7.10
2018-12-24T05:56:01.497Z,7.10
2018-12-24T06:16:50.419Z,7.20
2018-12-24T06:27:05.916Z,7.20
2018-12-24T06:37:21.740Z,7.10
2018-12-24T06:47:37.675Z,7.10
2018-12-24T06:57:53.472Z,7.00
2018-12-24T07:08:08.934Z,6.90
2018-12-24T07:18:24.424Z,7.00
2018-12-24T07:39:13.302Z,7.60
2018-12-24T08:00:02.740Z,7.90
2018-12-24T08:10:18.772Z,7.90
2018-12-24T08:20:34.140Z,7.60
2018-12-24T08:30:49.680Z,7.60
2018-12-24T08:41:05.668Z,7.60
2018-12-24T08:51:21.140Z,7.50
2018-12-24T09:01:36.448Z,7.80
2018-12-24T09:11:52.393Z,8.10
2018-12-24T09:22:07.924Z,8.30
2018-12-24T09:42:57.279Z,7.70
2018-12-24T09:53:12.473Z,7.80
2018-12-24T10:03:15.970Z,7.60
2018-12-24T10:24:01.185Z,7.70
2018-12-24T10:34:23.964Z,7.90
2018-12-24T10:44:39.252Z,7.80
2018-12-24T10:54:54.604Z,7.90
2018-12-24T11:05:10.271Z,8.00
2018-12-24T11:15:25.914Z,8.30
2018-12-24T11:25:41.503Z,8.30
2018-12-24T11:35:57.000Z,8.40
2018-12-24T11:46:12.251Z,8.40
2018-12-24T11:56:27.629Z,8.80
2018-12-24T12:06:43.747Z,8.60
2018-12-24T12:16:59.540Z,8.60
2018-12-24T12:27:15.100Z,8.40
2018-12-24T12:48:04.717Z,8.30
2018-12-24T12:58:20.478Z,8.20
2018-12-24T13:19:10.073Z,8.20
2018-12-24T13:29:25.528Z,8.40
2018-12-24T13:39:41.232Z,8.60
2018-12-24T13:49:56.421Z,8.70
2018-12-24T14:00:12.011Z,8.60
2018-12-24T14:10:28.213Z,8.50
2018-12-24T14:20:44.263Z,8.60
2018-12-24T14:30:59.687Z,8.40
2018-12-24T14:41:15.066Z,8.40
2018-12-24T14:51:30.688Z,8.40
2018-12-24T15:01:45.938Z,8.40
2018-12-24T15:12:02.165Z,8.30
2018-12-24T15:22:18.264Z,8.20
2018-12-24T15:32:34.091Z,8.10
2018-12-24T15:42:50.160Z,8.20
2018-12-24T15:53:05.496Z,7.90
2018-12-24T16:03:21.261Z,7.80
2018-12-24T16:13:36.941Z,7.70
2018-12-24T16:23:52.629Z,7.50
2018-12-24T16:34:08.263Z,7.20
2018-12-24T16:44:23.931Z,6.90
2018-12-24T16:54:39.945Z,6.60
2018-12-24T17:04:56.904Z,6.40
2018-12-24T17:15:12.715Z,6.40
2018-12-24T17:25:28.394Z,6.40
2018-12-24T17:35:43.960Z,6.30
2018-12-24T17:45:59.527Z,6.20
2018-12-24T17:56:15.557Z,6.30
2018-12-24T18:17:04.800Z,5.70
2018-12-24T18:27:20.411Z,5.70
2018-12-24T18:48:09.196Z,5.60
2018-12-24T18:58:25.011Z,5.40
2018-12-24T19:08:40.780Z,5.10
2018-12-24T19:18:56.954Z,5.20
2018-12-24T19:29:12.485Z,5.60
2018-12-24T19:39:28.228Z,5.60
2018-12-24T19:49:44.030Z,5.70
2018-12-24T20:00:00.266Z,5.70
2018-12-24T20:10:16.107Z,5.10
2018-12-24T20:20:31.953Z,5.10
2018-12-24T20:41:21.096Z,5.00
2018-12-24T20:51:37.077Z,4.80
2018-12-24T21:01:52.824Z,4.80
2018-12-24T21:12:08.574Z,4.80
2018-12-24T21:32:57.912Z,4.60
2018-12-24T21:43:13.676Z,4.60
2018-12-24T21:53:29.560Z,4.50
2018-12-24T22:03:44.927Z,4.40
2018-12-24T22:14:00.797Z,4.30
2018-12-24T22:24:16.980Z,4.20
2018-12-24T22:45:05.898Z,3.70
2018-12-24T22:55:21.368Z,3.40
2018-12-24T23:05:37.148Z,3.20
2018-12-24T23:15:52.350Z,3.20
2018-12-24T23:36:41.216Z,3.20
2018-12-24T23:46:56.841Z,3.00
2018-12-24T23:57:12.592Z,3.20
